createdAt,value
2024-02-02T00:00:39.122Z,4.00
2024-02-02T00:03:26.495Z,4.00
2024-02-02T00:05:54.055Z,3.90
2024-02-02T00:08:21.803Z,3.90
2024-02-02T00:10:49.443Z,3.90
2024-02-02T00:13:16.580Z,4.00
2024-02-02T00:15:44.036Z,3.90
2024-02-02T00:18:11.356Z,3.90
2024-02-02T00:20:38.961Z,3.90
2024-02-02T00:23:06.040Z,4.40
2024-02-02T00:25:33.734Z,3.90
2024-02-02T00:28:00.865Z,3.90
2024-02-02T00:30:28.454Z,3.90
2024-02-02T00:32:55.762Z,3.90
2024-02-02T00:35:23.121Z,3.90
2024-02-02T00:37:50.220Z,4.50
2024-02-02T00:40:19.892Z,3.90
2024-02-02T00:42:48.066Z,3.90
2024-02-02T00:45:15.569Z,3.90
2024-02-02T00:47:42.903Z,4.40
2024-02-02T00:50:12.096Z,3.90
2024-02-02T00:52:39.368Z,4.00
2024-02-02T00:55:06.952Z,4.00
2024-02-02T00:57:34.125Z,4.00
2024-02-02T01:00:01.541Z,4.10
2024-02-02T01:02:30.159Z,3.90
2024-02-02T01:04:57.534Z,4.00
2024-02-02T01:07:25.062Z,4.00
2024-02-02T01:09:52.431Z,4.00
2024-02-02T01:12:19.552Z,4.10
2024-02-02T01:14:46.999Z,4.40
2024-02-02T01:17:14.385Z,4.00
2024-02-02T01:19:41.846Z,4.00
2024-02-02T01:22:09.041Z,4.00
2024-02-02T01:24:36.499Z,4.00
2024-02-02T01:27:04.195Z,4.00
2024-02-02T01:29:34.688Z,4.00
2024-02-02T01:32:02.161Z,4.00
2024-02-02T01:34:30.011Z,4.00
2024-02-02T01:36:57.233Z,4.00
2024-02-02T01:39:24.654Z,5.90
2024-02-02T01:41:51.833Z,4.00
2024-02-02T01:44:19.214Z,4.00
2024-02-02T01:46:49.221Z,4.00
2024-02-02T01:49:16.934Z,4.00
2024-02-02T01:51:44.205Z,4.00
2024-02-02T01:54:11.829Z,4.50
2024-02-02T01:56:39.145Z,4.00
2024-02-02T01:59:09.031Z,4.00
2024-02-02T02:01:36.434Z,4.00
2024-02-02T02:04:04.997Z,4.00
2024-02-02T02:06:32.857Z,4.00
2024-02-02T02:09:00.411Z,4.10
2024-02-02T02:11:27.833Z,4.10
2024-02-02T02:13:56.035Z,4.20
2024-02-02T02:16:23.243Z,4.10
2024-02-02T02:18:56.105Z,4.00
2024-02-02T02:21:30.433Z,4.00
2024-02-02T02:23:58.098Z,4.00
2024-02-02T02:26:29.568Z,4.00
2024-02-02T02:28:57.112Z,4.00
2024-02-02T02:31:24.647Z,4.00
2024-02-02T02:33:52.251Z,4.00
2024-02-02T02:36:21.952Z,4.00
2024-02-02T02:38:50.433Z,6.10
2024-02-02T02:41:17.790Z,4.00
2024-02-02T02:43:45.180Z,4.00
2024-02-02T02:46:12.792Z,4.00
2024-02-02T02:48:40.464Z,4.00
2024-02-02T02:51:07.643Z,4.00
2024-02-02T02:53:35.086Z,4.00
2024-02-02T02:56:02.256Z,4.00
2024-02-02T02:58:29.654Z,4.00
2024-02-02T03:00:57.187Z,4.00
2024-02-02T03:03:24.639Z,3.90
2024-02-02T03:05:52.013Z,3.90
2024-02-02T03:08:19.474Z,3.90
2024-02-02T03:10:46.605Z,3.90
2024-02-02T03:13:13.923Z,3.90
2024-02-02T03:15:41.446Z,3.80
2024-02-02T03:18:10.306Z,3.80
2024-02-02T03:20:37.409Z,3.80
2024-02-02T03:23:05.055Z,3.80
2024-02-02T03:25:32.208Z,3.70
2024-02-02T03:27:59.879Z,3.70
2024-02-02T03:30:28.508Z,3.70
2024-02-02T03:32:56.282Z,3.70
2024-02-02T03:35:25.441Z,3.70
2024-02-02T03:37:52.761Z,3.70
2024-02-02T03:40:20.260Z,3.70
2024-02-02T03:42:47.716Z,3.70
2024-02-02T03:45:15.058Z,3.80
2024-02-02T03:47:42.524Z,3.80
2024-02-02T03:50:10.751Z,3.80
2024-02-02T03:52:38.246Z,3.80
2024-02-02T03:55:06.021Z,3.80
2024-02-02T03:57:33.408Z,3.80
2024-02-02T04:00:00.752Z,3.80
2024-02-02T04:02:28.337Z,3.90
2024-02-02T04:04:55.675Z,3.80
2024-02-02T04:07:23.054Z,3.90
2024-02-02T04:09:50.188Z,3.80
2024-02-02T04:12:19.008Z,3.90
2024-02-02T04:14:46.171Z,4.00
2024-02-02T04:17:13.601Z,3.80
2024-02-02T04:19:40.807Z,4.20
2024-02-02T04:22:08.252Z,3.80
2024-02-02T04:24:35.469Z,3.80
2024-02-02T04:27:02.973Z,3.80
2024-02-02T04:29:30.042Z,3.80
2024-02-02T04:31:57.435Z,3.80
2024-02-02T04:34:24.916Z,3.80
2024-02-02T04:36:52.330Z,3.80
2024-02-02T04:39:19.421Z,3.70
2024-02-02T04:41:47.365Z,3.70
2024-02-02T04:44:14.445Z,3.70
2024-02-02T04:46:41.809Z,3.70
2024-02-02T04:49:09.050Z,3.70
2024-02-02T04:51:37.173Z,3.70
2024-02-02T04:54:04.381Z,3.70
2024-02-02T04:56:31.840Z,3.70
2024-02-02T04:58:58.928Z,3.70
2024-02-02T05:01:26.384Z,3.70
2024-02-02T05:03:54.352Z,3.70
2024-02-02T05:06:23.647Z,3.60
2024-02-02T05:08:50.934Z,3.60
2024-02-02T05:11:18.324Z,3.60
2024-02-02T05:13:45.532Z,3.60
2024-02-02T05:16:15.421Z,3.60
2024-02-02T05:18:43.344Z,3.60
2024-02-02T05:21:10.931Z,3.50
2024-02-02T05:23:43.675Z,3.50
2024-02-02T05:26:17.551Z,3.50
2024-02-02T05:28:44.713Z,3.50
2024-02-02T05:31:12.209Z,4.10
2024-02-02T05:33:39.604Z,3.50
2024-02-02T05:36:07.467Z,3.40
2024-02-02T05:38:34.689Z,3.50
2024-02-02T05:41:02.049Z,3.50
2024-02-02T05:43:29.111Z,3.50
2024-02-02T05:45:56.499Z,3.50
2024-02-02T05:48:23.751Z,3.40
2024-02-02T05:50:51.383Z,3.40
2024-02-02T05:53:18.595Z,3.40
2024-02-02T05:55:47.513Z,3.40
2024-02-02T05:58:14.943Z,4.30
2024-02-02T06:00:42.436Z,3.40
2024-02-02T06:03:09.804Z,3.50
2024-02-02T06:05:37.294Z,3.50
2024-02-02T06:08:07.712Z,3.50
2024-02-02T06:10:35.342Z,3.50
2024-02-02T06:13:02.481Z,3.50
2024-02-02T06:15:30.914Z,3.50
2024-02-02T06:17:58.608Z,3.60
2024-02-02T06:20:26.279Z,3.50
2024-02-02T06:22:53.580Z,3.60
2024-02-02T06:25:21.110Z,3.60
2024-02-02T06:27:48.260Z,3.60
2024-02-02T06:30:15.930Z,3.60
2024-02-02T06:32:47.238Z,3.60
2024-02-02T06:35:15.055Z,3.80
2024-02-02T06:37:42.177Z,3.60
2024-02-02T06:40:10.271Z,3.60
2024-02-02T06:42:37.588Z,3.60
2024-02-02T06:45:05.471Z,4.40
2024-02-02T06:47:32.731Z,3.70
2024-02-02T06:50:00.582Z,3.70
2024-02-02T06:52:28.405Z,3.70
2024-02-02T06:54:56.005Z,3.70
2024-02-02T06:57:23.328Z,3.70
2024-02-02T06:59:51.199Z,3.70
2024-02-02T07:02:22.455Z,3.70
2024-02-02T07:04:50.218Z,3.70
2024-02-02T07:07:18.710Z,3.70
2024-02-02T07:09:55.407Z,3.80
2024-02-02T07:12:53.805Z,3.80
2024-02-02T07:15:23.063Z,3.70
2024-02-02T07:17:51.356Z,3.70
2024-02-02T07:20:41.781Z,3.70
2024-02-02T07:23:11.520Z,3.80
2024-02-02T07:25:41.637Z,4.30
2024-02-02T07:28:31.938Z,3.70
2024-02-02T07:31:00.387Z,3.70
2024-02-02T07:33:43.383Z,3.70
2024-02-02T07:36:30.908Z,3.80
2024-02-02T07:38:58.533Z,3.70
2024-02-02T07:41:27.530Z,3.80
2024-02-02T07:43:56.157Z,3.80
2024-02-02T07:46:24.175Z,4.20
2024-02-02T07:48:54.989Z,3.80
2024-02-02T07:51:26.525Z,3.80
2024-02-02T07:53:54.428Z,4.70
2024-02-02T07:56:23.948Z,3.90
2024-02-02T07:58:51.580Z,3.90
2024-02-02T08:01:19.454Z,3.90
2024-02-02T08:03:47.815Z,3.90
2024-02-02T08:06:15.539Z,3.90
2024-02-02T08:08:43.146Z,3.90
2024-02-02T08:11:10.642Z,3.90
2024-02-02T08:13:38.387Z,3.90
2024-02-02T08:16:06.135Z,5.10
2024-02-02T08:18:33.964Z,3.90
2024-02-02T08:21:03.685Z,4.00
2024-02-02T08:23:31.788Z,4.00
2024-02-02T08:25:59.167Z,4.00
2024-02-02T08:28:26.458Z,4.00
2024-02-02T08:30:54.239Z,4.00
2024-02-02T08:33:21.668Z,4.00
2024-02-02T08:35:49.218Z,4.10
2024-02-02T08:38:18.096Z,5.60
2024-02-02T08:40:45.930Z,4.00
2024-02-02T08:43:18.021Z,4.10
2024-02-02T08:45:57.589Z,4.10
2024-02-02T08:48:24.967Z,4.10
2024-02-02T08:50:55.025Z,4.10
2024-02-02T08:53:22.211Z,4.10
2024-02-02T08:55:52.786Z,4.20
2024-02-02T08:58:24.889Z,4.20
2024-02-02T09:00:53.042Z,4.20
2024-02-02T09:03:27.808Z,4.20
2024-02-02T09:06:00.362Z,5.20
2024-02-02T09:08:40.566Z,4.30
2024-02-02T09:11:18.404Z,4.40
2024-02-02T09:13:46.348Z,4.40
2024-02-02T09:16:18.741Z,4.40
2024-02-02T09:18:53.433Z,5.00
2024-02-02T09:21:25.229Z,4.60
2024-02-02T09:23:52.431Z,4.60
2024-02-02T09:26:41.436Z,4.80
2024-02-02T09:29:10.731Z,4.60
2024-02-02T09:31:39.266Z,4.70
2024-02-02T09:34:10.163Z,4.70
2024-02-02T09:36:40.958Z,4.70
2024-02-02T09:39:33.956Z,4.70
2024-02-02T09:42:30.633Z,4.80
2024-02-02T09:45:07.985Z,4.80
2024-02-02T09:48:04.591Z,4.80
2024-02-02T09:51:08.856Z,4.90
2024-02-02T09:53:59.505Z,4.90
2024-02-02T09:56:41.901Z,4.80
2024-02-02T09:59:41.073Z,4.80
2024-02-02T10:02:44.812Z,4.80
2024-02-02T10:05:33.303Z,4.80
2024-02-02T10:08:09.461Z,5.70
2024-02-02T10:11:04.926Z,4.80
2024-02-02T10:13:52.639Z,4.90
2024-02-02T10:16:27.942Z,5.00
2024-02-02T10:19:36.880Z,4.90
2024-02-02T10:22:08.002Z,5.00
2024-02-02T10:25:02.971Z,5.00
2024-02-02T10:27:43.240Z,5.10
2024-02-02T10:30:19.479Z,5.10
2024-02-02T10:33:09.553Z,5.10
2024-02-02T10:35:40.623Z,5.30
2024-02-02T10:38:27.613Z,5.40
2024-02-02T10:41:44.833Z,5.60
2024-02-02T10:44:14.920Z,5.70
2024-02-02T10:47:03.192Z,5.70
2024-02-02T10:49:48.977Z,5.60
2024-02-02T10:52:46.996Z,5.60
2024-02-02T10:55:20.489Z,5.60
2024-02-02T10:58:04.005Z,5.50
2024-02-02T11:00:55.558Z,5.40
2024-02-02T11:03:36.316Z,5.40
2024-02-02T11:06:17.291Z,5.40
2024-02-02T11:08:57.656Z,5.40
2024-02-02T11:11:28.847Z,5.40
2024-02-02T11:14:10.400Z,6.10
2024-02-02T11:16:37.748Z,5.40
2024-02-02T11:19:35.387Z,5.40
2024-02-02T11:22:21.185Z,5.40
2024-02-02T11:25:05.469Z,5.30
2024-02-02T11:27:54.773Z,5.30
2024-02-02T11:30:36.776Z,5.30
2024-02-02T11:33:26.225Z,5.10
2024-02-02T11:36:12.170Z,5.00
2024-02-02T11:38:52.452Z,4.80
2024-02-02T11:41:21.219Z,4.70
2024-02-02T11:43:50.290Z,4.70
2024-02-02T11:46:23.275Z,4.70
2024-02-02T11:48:54.833Z,4.70
2024-02-02T11:51:22.901Z,4.60
2024-02-02T11:54:03.808Z,4.60
2024-02-02T11:56:34.626Z,4.80
2024-02-02T11:59:12.408Z,4.70
2024-02-02T12:01:54.693Z,4.60
2024-02-02T12:04:30.947Z,4.60
2024-02-02T12:07:20.517Z,4.60
2024-02-02T12:10:03.968Z,4.60
2024-02-02T12:12:56.147Z,4.70
2024-02-02T12:15:24.293Z,4.70
2024-02-02T12:17:51.548Z,4.80
2024-02-02T12:20:19.927Z,4.80
2024-02-02T12:22:48.331Z,4.80
2024-02-02T12:25:16.853Z,4.90
2024-02-02T12:27:44.103Z,4.90
2024-02-02T12:30:13.046Z,5.00
2024-02-02T12:32:40.387Z,5.00
2024-02-02T12:35:08.264Z,5.00
2024-02-02T12:37:52.181Z,5.10
2024-02-02T12:40:26.456Z,5.20
2024-02-02T12:42:57.630Z,5.10
2024-02-02T12:45:25.080Z,5.60
2024-02-02T12:47:53.784Z,5.20
2024-02-02T12:50:22.868Z,5.20
2024-02-02T12:52:52.425Z,5.30
2024-02-02T12:55:20.111Z,5.30
2024-02-02T12:57:47.432Z,5.30
2024-02-02T13:00:15.775Z,5.30
2024-02-02T13:02:44.916Z,5.30
2024-02-02T13:05:20.586Z,5.30
2024-02-02T13:07:49.928Z,5.30
2024-02-02T13:10:53.928Z,5.30
2024-02-02T13:13:23.486Z,5.30
2024-02-02T13:15:50.833Z,5.30
2024-02-02T13:18:21.238Z,5.30
2024-02-02T13:20:53.019Z,5.40
2024-02-02T13:23:25.722Z,5.40
2024-02-02T13:26:00.453Z,5.40
2024-02-02T13:28:40.222Z,5.40
2024-02-02T13:31:16.443Z,5.40
2024-02-02T13:33:56.055Z,5.40
2024-02-02T13:36:24.171Z,5.40
2024-02-02T13:38:56.182Z,5.40
2024-02-02T13:41:24.020Z,5.40
2024-02-02T13:43:58.098Z,5.50
2024-02-02T13:46:27.184Z,5.40
2024-02-02T13:48:59.508Z,5.40
2024-02-02T13:51:29.260Z,5.40
2024-02-02T13:53:56.767Z,6.30
2024-02-02T13:56:26.217Z,6.10
2024-02-02T13:58:53.717Z,5.40
2024-02-02T14:01:22.936Z,5.40
2024-02-02T14:03:55.544Z,5.30
2024-02-02T14:06:24.887Z,5.30
2024-02-02T14:08:54.813Z,5.20
2024-02-02T14:11:26.553Z,5.20
2024-02-02T14:13:55.519Z,5.20
2024-02-02T14:16:24.331Z,5.20
2024-02-02T14:19:05.860Z,5.20
2024-02-02T14:21:38.238Z,5.20
2024-02-02T14:24:09.634Z,5.20
2024-02-02T14:26:54.261Z,5.20
2024-02-02T14:29:23.462Z,5.10
2024-02-02T14:31:58.826Z,5.10
2024-02-02T14:34:28.134Z,5.10
2024-02-02T14:36:56.112Z,5.10
2024-02-02T14:39:27.589Z,5.10
2024-02-02T14:41:56.262Z,5.10
2024-02-02T14:44:24.817Z,5.10
2024-02-02T14:46:52.498Z,5.10
2024-02-02T14:49:22.902Z,5.20
2024-02-02T14:51:51.611Z,5.00
2024-02-02T14:54:19.038Z,5.00
2024-02-02T14:56:46.709Z,5.00
2024-02-02T14:59:21.595Z,5.30
2024-02-02T15:01:49.311Z,5.00
2024-02-02T15:04:17.184Z,5.00
2024-02-02T15:06:45.556Z,5.00
2024-02-02T15:09:17.698Z,4.90
2024-02-02T15:11:46.207Z,6.00
2024-02-02T15:14:14.744Z,4.90
2024-02-02T15:16:42.141Z,4.90
2024-02-02T15:19:09.290Z,4.90
2024-02-02T15:21:37.079Z,4.90
2024-02-02T15:24:04.511Z,4.80
2024-02-02T15:26:38.589Z,4.90
2024-02-02T15:29:05.807Z,4.80
2024-02-02T15:31:34.077Z,4.80
2024-02-02T15:34:06.107Z,4.80
2024-02-02T15:36:35.703Z,4.90
2024-02-02T15:39:18.566Z,4.80
2024-02-02T15:41:54.111Z,4.80
2024-02-02T15:44:21.355Z,4.80
2024-02-02T15:46:48.832Z,4.80
2024-02-02T15:49:16.197Z,4.70
2024-02-02T15:51:43.692Z,4.70
2024-02-02T15:54:11.105Z,4.70
2024-02-02T15:56:38.534Z,4.70
2024-02-02T15:59:06.146Z,4.70
2024-02-02T16:01:33.741Z,4.60
2024-02-02T16:04:01.026Z,4.60
2024-02-02T16:06:29.200Z,4.50
2024-02-02T16:08:56.643Z,3.90
2024-02-02T16:11:24.176Z,4.40
2024-02-02T16:13:54.593Z,4.80
2024-02-02T16:16:22.000Z,4.30
2024-02-02T16:18:49.378Z,4.30
2024-02-02T16:21:17.002Z,4.30
2024-02-02T16:23:44.191Z,4.20
2024-02-02T16:26:11.774Z,4.30
2024-02-02T16:28:38.856Z,4.30
2024-02-02T16:31:06.297Z,4.20
2024-02-02T16:33:33.750Z,4.20
2024-02-02T16:36:01.522Z,4.30
2024-02-02T16:38:29.074Z,4.30
2024-02-02T16:40:56.506Z,4.20
2024-02-02T16:43:23.704Z,4.20
2024-02-02T16:45:51.101Z,4.20
2024-02-02T16:48:19.724Z,4.20
2024-02-02T16:50:47.101Z,4.10
2024-02-02T16:53:14.238Z,4.10
2024-02-02T16:55:41.739Z,4.00
2024-02-02T16:58:09.395Z,4.00
2024-02-02T17:00:37.545Z,4.00
2024-02-02T17:03:05.163Z,4.00
2024-02-02T17:05:32.757Z,4.00
2024-02-02T17:08:00.028Z,4.00
2024-02-02T17:10:27.644Z,3.90
2024-02-02T17:12:54.807Z,4.00
2024-02-02T17:15:22.473Z,4.00
2024-02-02T17:17:49.673Z,3.90
2024-02-02T17:20:19.171Z,3.90
2024-02-02T17:22:46.476Z,3.90
2024-02-02T17:25:13.997Z,3.90
2024-02-02T17:27:42.591Z,3.90
2024-02-02T17:30:14.235Z,3.90
2024-02-02T17:32:41.509Z,3.90
2024-02-02T17:35:10.237Z,3.90
2024-02-02T17:37:37.934Z,3.90
2024-02-02T17:40:06.616Z,3.90
2024-02-02T17:42:33.802Z,3.80
2024-02-02T17:45:01.292Z,3.80
2024-02-02T17:47:28.626Z,3.80
2024-02-02T17:49:57.272Z,3.80
2024-02-02T17:52:25.709Z,3.80
2024-02-02T17:54:53.132Z,3.80
2024-02-02T17:57:20.557Z,3.80
2024-02-02T17:59:48.022Z,3.80
2024-02-02T18:02:15.818Z,5.20
2024-02-02T18:04:43.283Z,3.80
2024-02-02T18:07:12.922Z,3.70
2024-02-02T18:09:41.499Z,3.70
2024-02-02T18:12:15.201Z,3.70
2024-02-02T18:14:42.688Z,3.70
2024-02-02T18:17:10.470Z,3.70
2024-02-02T18:19:38.361Z,3.70
2024-02-02T18:22:05.639Z,3.80
2024-02-02T18:24:33.084Z,3.70
2024-02-02T18:27:00.511Z,3.70
2024-02-02T18:29:28.072Z,3.70
2024-02-02T18:31:55.371Z,3.80
2024-02-02T18:34:23.136Z,3.70
2024-02-02T18:36:50.676Z,3.80
2024-02-02T18:39:20.894Z,3.80
2024-02-02T18:41:48.007Z,3.80
2024-02-02T18:44:15.337Z,3.80
2024-02-02T18:46:42.456Z,3.80
2024-02-02T18:49:10.068Z,3.80
2024-02-02T18:51:37.243Z,3.80
2024-02-02T18:54:05.172Z,3.80
2024-02-02T18:56:32.491Z,3.80
2024-02-02T18:58:59.900Z,3.80
2024-02-02T19:01:33.463Z,3.80
2024-02-02T19:04:01.443Z,3.80
2024-02-02T19:06:28.909Z,3.80
2024-02-02T19:08:57.389Z,3.90
2024-02-02T19:11:24.470Z,3.80
2024-02-02T19:13:51.973Z,3.90
2024-02-02T19:16:26.227Z,3.80
2024-02-02T19:18:54.081Z,3.90
2024-02-02T19:21:30.927Z,3.90
2024-02-02T19:24:00.005Z,3.80
2024-02-02T19:26:27.195Z,3.80
2024-02-02T19:28:54.651Z,3.90
2024-02-02T19:31:26.312Z,3.90
2024-02-02T19:33:53.997Z,3.90
2024-02-02T19:36:27.367Z,3.80
2024-02-02T19:38:56.146Z,3.80
2024-02-02T19:41:26.553Z,4.00
2024-02-02T19:43:54.303Z,3.80
2024-02-02T19:46:26.858Z,3.80
2024-02-02T19:48:55.960Z,3.70
2024-02-02T19:51:25.236Z,3.80
2024-02-02T19:53:52.928Z,3.80
2024-02-02T19:56:20.122Z,3.70
2024-02-02T19:58:48.812Z,3.70
2024-02-02T20:01:17.523Z,4.60
2024-02-02T20:03:46.600Z,3.70
2024-02-02T20:06:15.207Z,3.70
2024-02-02T20:08:44.102Z,3.70
2024-02-02T20:11:16.399Z,3.80
2024-02-02T20:13:44.429Z,3.80
2024-02-02T20:16:17.267Z,3.70
2024-02-02T20:18:45.444Z,3.70
2024-02-02T20:21:14.660Z,3.80
2024-02-02T20:23:43.638Z,3.80
2024-02-02T20:26:16.632Z,3.80
2024-02-02T20:28:44.335Z,3.80
2024-02-02T20:31:11.923Z,3.80
2024-02-02T20:33:39.436Z,3.80
2024-02-02T20:36:06.952Z,3.80
2024-02-02T20:38:34.479Z,3.80
2024-02-02T20:41:06.396Z,4.10
2024-02-02T20:43:34.126Z,3.80
2024-02-02T20:46:01.342Z,3.90
2024-02-02T20:48:28.776Z,4.90
2024-02-02T20:50:56.141Z,3.90
2024-02-02T20:53:23.722Z,3.90
2024-02-02T20:55:50.777Z,3.90
2024-02-02T20:58:18.371Z,3.90
2024-02-02T21:00:45.946Z,3.90
2024-02-02T21:03:14.315Z,3.90
2024-02-02T21:05:41.797Z,4.80
2024-02-02T21:08:09.232Z,4.00
2024-02-02T21:10:36.472Z,4.00
2024-02-02T21:13:04.131Z,4.00
2024-02-02T21:15:35.162Z,4.00
2024-02-02T21:18:10.901Z,4.80
2024-02-02T21:20:44.628Z,4.00
2024-02-02T21:23:13.432Z,4.10
2024-02-02T21:25:44.398Z,4.10
2024-02-02T21:28:11.981Z,4.30
2024-02-02T21:30:39.177Z,5.10
2024-02-02T21:33:06.688Z,4.10
2024-02-02T21:35:33.874Z,4.10
2024-02-02T21:38:01.323Z,4.10
2024-02-02T21:40:28.703Z,4.20
2024-02-02T21:42:56.638Z,4.20
2024-02-02T21:45:23.841Z,4.20
2024-02-02T21:47:51.424Z,4.20
2024-02-02T21:50:18.713Z,4.20
2024-02-02T21:52:46.242Z,4.20
2024-02-02T21:55:13.401Z,4.30
2024-02-02T21:57:40.869Z,4.30
2024-02-02T22:00:08.752Z,4.50
2024-02-02T22:02:36.224Z,4.30
2024-02-02T22:05:04.060Z,4.30
2024-02-02T22:07:31.656Z,4.30
2024-02-02T22:10:00.906Z,4.30
2024-02-02T22:12:28.350Z,4.40
2024-02-02T22:14:55.519Z,4.40
2024-02-02T22:17:22.906Z,4.40
2024-02-02T22:19:50.127Z,4.40
2024-02-02T22:22:17.515Z,5.80
2024-02-02T22:24:45.467Z,4.40
2024-02-02T22:27:14.963Z,4.40
2024-02-02T22:29:42.844Z,4.50
2024-02-02T22:32:10.313Z,4.40
2024-02-02T22:34:38.413Z,4.50
2024-02-02T22:37:05.852Z,4.50
2024-02-02T22:39:33.017Z,4.50
2024-02-02T22:42:00.427Z,4.50
2024-02-02T22:44:27.639Z,4.50
2024-02-02T22:46:54.932Z,4.50
2024-02-02T22:49:22.087Z,4.60
2024-02-02T22:51:49.826Z,4.60
2024-02-02T22:54:18.637Z,4.60
2024-02-02T22:56:49.340Z,4.60
2024-02-02T22:59:16.758Z,4.60
2024-02-02T23:01:44.300Z,4.60
2024-02-02T23:04:11.606Z,4.60
2024-02-02T23:06:39.154Z,4.60
2024-02-02T23:09:06.896Z,4.70
2024-02-02T23:11:34.346Z,4.70
2024-02-02T23:14:01.395Z,4.70
2024-02-02T23:16:28.800Z,4.70
2024-02-02T23:18:56.074Z,4.70
2024-02-02T23:21:23.618Z,4.70
2024-02-02T23:23:50.694Z,4.80
2024-02-02T23:26:18.381Z,4.80
2024-02-02T23:28:45.485Z,4.80
2024-02-02T23:31:12.964Z,4.80
2024-02-02T23:33:42.227Z,4.80
2024-02-02T23:36:09.965Z,4.90
2024-02-02T23:38:37.039Z,4.80
2024-02-02T23:41:04.511Z,4.90
2024-02-02T23:43:31.681Z,4.90
2024-02-02T23:45:59.064Z,4.90
2024-02-02T23:48:26.509Z,5.90
2024-02-02T23:50:53.943Z,4.90
2024-02-02T23:53:21.107Z,4.90
2024-02-02T23:55:48.419Z,5.60
2024-02-02T23:58:15.541Z,5.00
